Okabena, Minnesota
Current Conditions -  °F | °C
As of 8:35 PM on Thursday 20 Nov 2014 (Local Time) from KOTG Reporting Station
Clear Clear  
Wind Chill: -20°   Ceiling: Unl
Heat Index: -15°   Visibility: 10mi
Dew Point: -15°   Wind: 5mph
Humidity: 100%   Direction: 210°SSW
Pressure: 30.19"   Gusts: NA
Location:  43.74°N, 95.32°W
Report Text: KOTG 210235Z AUTO 21004KT 10SM CLR M15/M15 A3019 RMK AO1
Loading
Personal Weather Stations






























Interactive Weather Map New forecast layout! Learn more

10-Day Weather Forecast

Advertisements
Track Severe Weather on mobile